Westport, Washington
Current Conditions -  °F | °C
As of 9:53 PM on Tuesday 27 Jan 2015 (Local Time) from KHQM Reporting Station
Overcast Overcast  
Wind Chill: 45°   Ceiling: 2500
Heat Index: 47°   Visibility: 8mi
Dew Point: 41°   Wind: 5mph
Humidity: 80%   Direction: 290°WNW
Pressure: 30.25"   Gusts: NA
Location:  46.89°N, 124.1°W
Report Text: KHQM 280553Z AUTO 29004KT 8SM OVC025 08/05 A3025 RMK AO2 SLP248 T00830050 10106 20083 53019 $
Loading
Personal Weather Stations






























Interactive Weather Map New forecast layout! Learn more

10-Day Weather Forecast

Advertisements
Track Severe Weather on mobile